sensor_id;sensor_type;location;lat;lon;timestamp;pressure;altitude;pressure_sealevel;temperature;humidity
48606;BME280;8482;54.396;18.590;2023-07-13T00:00:05;100968.66;;;17.50;79.58
48606;BME280;8482;54.396;18.590;2023-07-13T00:02:35;100967.97;;;17.48;79.67
48606;BME280;8482;54.396;18.590;2023-07-13T00:05:01;100970.28;;;17.42;79.68
48606;BME280;8482;54.396;18.590;2023-07-13T00:07:27;100975.66;;;17.42;79.93
48606;BME280;8482;54.396;18.590;2023-07-13T00:09:56;100978.00;;;17.37;80.11
48606;BME280;8482;54.396;18.590;2023-07-13T00:12:36;100981.69;;;17.36;79.71
48606;BME280;8482;54.396;18.590;2023-07-13T00:15:10;100984.69;;;17.33;79.63
48606;BME280;8482;54.396;18.590;2023-07-13T00:17:37;100983.16;;;17.30;79.96
48606;BME280;8482;54.396;18.590;2023-07-13T00:20:05;100984.84;;;17.31;80.18
48606;BME280;8482;54.396;18.590;2023-07-13T00:22:32;100979.78;;;17.28;80.38
48606;BME280;8482;54.396;18.590;2023-07-13T00:24:58;100979.94;;;17.27;80.69
48606;BME280;8482;54.396;18.590;2023-07-13T00:27:25;100975.44;;;17.27;80.20
48606;BME280;8482;54.396;18.590;2023-07-13T00:29:55;100969.56;;;17.24;80.34
48606;BME280;8482;54.396;18.590;2023-07-13T00:32:21;100958.84;;;17.24;80.55
48606;BME280;8482;54.396;18.590;2023-07-13T00:34:47;100947.75;;;17.19;80.54
48606;BME280;8482;54.396;18.590;2023-07-13T00:37:13;100940.69;;;17.18;80.62
48606;BME280;8482;54.396;18.590;2023-07-13T00:39:39;100943.38;;;17.18;80.81
48606;BME280;8482;54.396;18.590;2023-07-13T00:42:05;100948.91;;;17.16;80.75
48606;BME280;8482;54.396;18.590;2023-07-13T00:44:31;100953.59;;;17.14;80.98
48606;BME280;8482;54.396;18.590;2023-07-13T00:46:57;100957.09;;;17.14;80.85
48606;BME280;8482;54.396;18.590;2023-07-13T00:49:28;100947.53;;;17.12;80.94
48606;BME280;8482;54.396;18.590;2023-07-13T00:51:59;100952.22;;;17.10;81.07
48606;BME280;8482;54.396;18.590;2023-07-13T00:54:37;100949.88;;;17.07;80.82
48606;BME280;8482;54.396;18.590;2023-07-13T00:57:09;100955.22;;;17.07;80.85
48606;BME280;8482;54.396;18.590;2023-07-13T00:59:42;100959.25;;;17.11;80.03
48606;BME280;8482;54.396;18.590;2023-07-13T01:02:08;100966.41;;;17.02;80.24
48606;BME280;8482;54.396;18.590;2023-07-13T01:04:34;100964.81;;;16.91;80.70
48606;BME280;8482;54.396;18.590;2023-07-13T01:07:00;100968.97;;;16.85;81.17
48606;BME280;8482;54.396;18.590;2023-07-13T01:09:27;100976.31;;;16.83;81.70
48606;BME280;8482;54.396;18.590;2023-07-13T01:11:53;100968.97;;;16.85;81.21
48606;BME280;8482;54.396;18.590;2023-07-13T01:14:19;100976.31;;;16.83;80.93
48606;BME280;8482;54.396;18.590;2023-07-13T01:16:46;100981.47;;;16.77;81.30
48606;BME280;8482;54.396;18.590;2023-07-13T01:19:36;100991.97;;;16.70;81.73
48606;BME280;8482;54.396;18.590;2023-07-13T01:22:15;100985.06;;;16.67;82.04
48606;BME280;8482;54.396;18.590;2023-07-13T01:24:46;100983.53;;;16.65;82.21
48606;BME280;8482;54.396;18.590;2023-07-13T01:27:15;100992.25;;;16.67;82.60
48606;BME280;8482;54.396;18.590;2023-07-13T01:29:44;100992.25;;;16.67;82.44
48606;BME280;8482;54.396;18.590;2023-07-13T01:32:17;100987.91;;;16.66;82.44
48606;BME280;8482;54.396;18.590;2023-07-13T01:34:48;100995.47;;;16.70;82.09
48606;BME280;8482;54.396;18.590;2023-07-13T01:37:14;100991.28;;;16.68;82.07
48606;BME280;8482;54.396;18.590;2023-07-13T01:39:40;100996.63;;;16.68;81.81
48606;BME280;8482;54.396;18.590;2023-07-13T01:42:06;100991.97;;;16.70;81.59
48606;BME280;8482;54.396;18.590;2023-07-13T01:44:32;101001.72;;;16.79;81.16
48606;BME280;8482;54.396;18.590;2023-07-13T01:46:58;100997.31;;;16.70;81.61
48606;BME280;8482;54.396;18.590;2023-07-13T01:49:24;101005.28;;;16.62;82.19
48606;BME280;8482;54.396;18.590;2023-07-13T01:51:50;101006.44;;;16.59;82.66
48606;BME280;8482;54.396;18.590;2023-07-13T01:54:15;101006.59;;;16.58;82.72
48606;BME280;8482;54.396;18.590;2023-07-13T01:56:41;101010.78;;;16.60;82.69
48606;BME280;8482;54.396;18.590;2023-07-13T01:59:08;101013.16;;;16.63;82.63
48606;BME280;8482;54.396;18.590;2023-07-13T02:01:34;101020.03;;;16.66;82.44
48606;BME280;8482;54.396;18.590;2023-07-13T02:04:00;101015.69;;;16.65;82.40
48606;BME280;8482;54.396;18.590;2023-07-13T02:06:26;101014.69;;;16.66;82.61
48606;BME280;8482;54.396;18.590;2023-07-13T02:08:53;101020.72;;;16.68;82.40
48606;BME280;8482;54.396;18.590;2023-07-13T02:11:19;101024.41;;;16.67;82.34
48606;BME280;8482;54.396;18.590;2023-07-13T02:13:44;101029.75;;;16.67;82.14
48606;BME280;8482;54.396;18.590;2023-07-13T02:16:10;101034.97;;;16.68;81.89
48606;BME280;8482;54.396;18.590;2023-07-13T02:18:36;101032.97;;;16.70;81.80
48606;BME280;8482;54.396;18.590;2023-07-13T02:21:03;101034.81;;;16.70;82.10
48606;BME280;8482;54.396;18.590;2023-07-13T02:23:29;101032.97;;;16.70;82.21
48606;BME280;8482;54.396;18.590;2023-07-13T02:25:59;101027.31;;;16.74;82.41
48606;BME280;8482;54.396;18.590;2023-07-13T02:28:26;101025.63;;;16.73;82.52
48606;BME280;8482;54.396;18.590;2023-07-13T02:30:51;101023.81;;;16.73;82.51
48606;BME280;8482;54.396;18.590;2023-07-13T02:33:17;101020.44;;;16.71;82.59
48606;BME280;8482;54.396;18.590;2023-07-13T02:35:43;101023.63;;;16.75;82.56
48606;BME280;8482;54.396;18.590;2023-07-13T02:38:09;101019.09;;;16.75;82.72
48606;BME280;8482;54.396;18.590;2023-07-13T02:40:35;101027.13;;;16.75;82.53
48606;BME280;8482;54.396;18.590;2023-07-13T02:43:02;101027.84;;;16.77;82.62
48606;BME280;8482;54.396;18.590;2023-07-13T02:45:28;101021.78;;;16.75;82.67
48606;BME280;8482;54.396;18.590;2023-07-13T02:47:54;101034.19;;;16.76;82.76
48606;BME280;8482;54.396;18.590;2023-07-13T02:50:20;101026.16;;;16.76;82.71
48606;BME280;8482;54.396;18.590;2023-07-13T02:52:46;101017.41;;;16.74;82.67
48606;BME280;8482;54.396;18.590;2023-07-13T02:55:12;101018.28;;;16.75;82.84
48606;BME280;8482;54.396;18.590;2023-07-13T02:57:38;101023.63;;;16.75;82.78
48606;BME280;8482;54.396;18.590;2023-07-13T03:00:05;101021.78;;;16.75;82.82
48606;BME280;8482;54.396;18.590;2023-07-13T03:02:33;101014.75;;;16.74;82.91
48606;BME280;8482;54.396;18.590;2023-07-13T03:04:59;101026.47;;;16.73;82.92
48606;BME280;8482;54.396;18.590;2023-07-13T03:07:25;101026.47;;;16.73;82.96
48606;BME280;8482;54.396;18.590;2023-07-13T03:09:56;101016.91;;;16.70;83.08
48606;BME280;8482;54.396;18.590;2023-07-13T03:12:22;101010.53;;;16.72;83.20
48606;BME280;8482;54.396;18.590;2023-07-13T03:14:48;101019.56;;;16.70;83.65
48606;BME280;8482;54.396;18.590;2023-07-13T03:17:14;101011.53;;;16.70;83.57
48606;BME280;8482;54.396;18.590;2023-07-13T03:19:40;101003.66;;;16.69;83.84
48606;BME280;8482;54.396;18.590;2023-07-13T03:22:06;101006.34;;;16.69;83.83
48606;BME280;8482;54.396;18.590;2023-07-13T03:24:35;101005.50;;;16.68;84.03
48606;BME280;8482;54.396;18.590;2023-07-13T03:27:05;101018.59;;;16.72;83.91
48606;BME280;8482;54.396;18.590;2023-07-13T03:29:31;101017.88;;;16.69;84.05
48606;BME280;8482;54.396;18.590;2023-07-13T03:31:57;101014.38;;;16.69;84.19
48606;BME280;8482;54.396;18.590;2023-07-13T03:34:22;101013.69;;;16.67;84.35
48606;BME280;8482;54.396;18.590;2023-07-13T03:36:48;101007.66;;;16.65;84.52
48606;BME280;8482;54.396;18.590;2023-07-13T03:39:14;101006.81;;;16.64;84.70
48606;BME280;8482;54.396;18.590;2023-07-13T03:41:40;101006.66;;;16.66;84.71
48606;BME280;8482;54.396;18.590;2023-07-13T03:44:06;101005.66;;;16.67;84.70
48606;BME280;8482;54.396;18.590;2023-07-13T03:46:32;101004.84;;;16.66;84.92
48606;BME280;8482;54.396;18.590;2023-07-13T03:48:59;101012.69;;;16.68;85.07
48606;BME280;8482;54.396;18.590;2023-07-13T03:51:25;101013.53;;;16.68;84.96
48606;BME280;8482;54.396;18.590;2023-07-13T03:53:51;101004.84;;;16.66;84.93
48606;BME280;8482;54.396;18.590;2023-07-13T03:56:18;101013.69;;;16.67;85.35
48606;BME280;8482;54.396;18.590;2023-07-13T03:58:47;101014.53;;;16.67;85.38
48606;BME280;8482;54.396;18.590;2023-07-13T04:01:16;101015.38;;;16.68;85.82
48606;BME280;8482;54.396;18.590;2023-07-13T04:03:42;101020.56;;;16.69;86.14
48606;BME280;8482;54.396;18.590;2023-07-13T04:06:20;101021.94;;;16.74;85.83
48606;BME280;8482;54.396;18.590;2023-07-13T04:08:49;101013.91;;;16.74;85.97
48606;BME280;8482;54.396;18.590;2023-07-13T04:11:17;101022.78;;;16.74;86.39
48606;BME280;8482;54.396;18.590;2023-07-13T04:13:42;101026.69;;;16.80;86.59
48606;BME280;8482;54.396;18.590;2023-07-13T04:16:08;101027.22;;;16.83;86.40
48606;BME280;8482;54.396;18.590;2023-07-13T04:18:34;101027.75;;;16.87;86.64
48606;BME280;8482;54.396;18.590;2023-07-13T04:21:00;101028.97;;;16.93;86.66
48606;BME280;8482;54.396;18.590;2023-07-13T04:23:26;101032.06;;;16.98;86.82
48606;BME280;8482;54.396;18.590;2023-07-13T04:25:53;101039.44;;;17.04;86.93
48606;BME280;8482;54.396;18.590;2023-07-13T04:28:22;101040.19;;;17.14;87.20
48606;BME280;8482;54.396;18.590;2023-07-13T04:30:48;101034.22;;;17.21;87.25
48606;BME280;8482;54.396;18.590;2023-07-13T04:33:14;101044.28;;;17.27;87.52
48606;BME280;8482;54.396;18.590;2023-07-13T04:35:45;101047.34;;;17.32;87.62
48606;BME280;8482;54.396;18.590;2023-07-13T04:38:12;101058.28;;;17.39;87.52
48606;BME280;8482;54.396;18.590;2023-07-13T04:40:38;101047.56;;;17.47;87.40
48606;BME280;8482;54.396;18.590;2023-07-13T04:43:04;101043.75;;;17.50;87.44
48606;BME280;8482;54.396;18.590;2023-07-13T04:45:29;101034.91;;;17.57;87.38
48606;BME280;8482;54.396;18.590;2023-07-13T04:47:57;101021.03;;;17.62;87.11
48606;BME280;8482;54.396;18.590;2023-07-13T04:50:22;101030.47;;;17.74;86.57
48606;BME280;8482;54.396;18.590;2023-07-13T04:52:51;101026.59;;;17.77;86.55
48606;BME280;8482;54.396;18.590;2023-07-13T04:55:19;101035.16;;;17.81;86.79
48606;BME280;8482;54.396;18.590;2023-07-13T04:57:45;101034.53;;;17.87;86.41
48606;BME280;8482;54.396;18.590;2023-07-13T05:00:12;101039.22;;;17.93;86.04
48606;BME280;8482;54.396;18.590;2023-07-13T05:02:39;101043.16;;;17.99;85.94
48606;BME280;8482;54.396;18.590;2023-07-13T05:05:06;101047.19;;;18.03;85.85
48606;BME280;8482;54.396;18.590;2023-07-13T05:07:32;101047.38;;;18.10;85.98
48606;BME280;8482;54.396;18.590;2023-07-13T05:09:59;101034.31;;;18.15;85.86
48606;BME280;8482;54.396;18.590;2023-07-13T05:12:26;101039.84;;;18.21;84.97
48606;BME280;8482;54.396;18.590;2023-07-13T05:14:53;101042.03;;;18.26;84.91
48606;BME280;8482;54.396;18.590;2023-07-13T05:17:18;101039.72;;;18.31;84.92
48606;BME280;8482;54.396;18.590;2023-07-13T05:19:44;101043.56;;;18.37;84.63
48606;BME280;8482;54.396;18.590;2023-07-13T05:22:10;101058.88;;;18.45;84.25
48606;BME280;8482;54.396;18.590;2023-07-13T05:24:36;101064.75;;;18.48;83.71
48606;BME280;8482;54.396;18.590;2023-07-13T05:27:02;101060.72;;;18.52;83.40
48606;BME280;8482;54.396;18.590;2023-07-13T05:29:28;101067.09;;;18.60;82.79
48606;BME280;8482;54.396;18.590;2023-07-13T05:31:54;101068.59;;;18.62;82.46
48606;BME280;8482;54.396;18.590;2023-07-13T05:34:20;101070.78;;;18.67;82.13
48606;BME280;8482;54.396;18.590;2023-07-13T05:36:46;101067.63;;;18.72;82.07
48606;BME280;8482;54.396;18.590;2023-07-13T05:39:12;101070.47;;;18.78;81.58
48606;BME280;8482;54.396;18.590;2023-07-13T05:41:38;101074.34;;;18.84;81.02
48606;BME280;8482;54.396;18.590;2023-07-13T05:44:03;101074.16;;;18.86;80.50
48606;BME280;8482;54.396;18.590;2023-07-13T05:46:29;101080.91;;;18.90;80.42
48606;BME280;8482;54.396;18.590;2023-07-13T05:48:56;101081.25;;;18.95;80.07
48606;BME280;8482;54.396;18.590;2023-07-13T05:51:22;101091.34;;;19.01;79.67
48606;BME280;8482;54.396;18.590;2023-07-13T05:53:48;101084.44;;;19.07;78.71
48606;BME280;8482;54.396;18.590;2023-07-13T05:56:13;101096.38;;;19.12;78.25
48606;BME280;8482;54.396;18.590;2023-07-13T05:58:39;101102.25;;;19.16;77.80
48606;BME280;8482;54.396;18.590;2023-07-13T06:01:11;101095.19;;;19.23;75.93
48606;BME280;8482;54.396;18.590;2023-07-13T06:03:37;101102.88;;;19.26;75.90
48606;BME280;8482;54.396;18.590;2023-07-13T06:06:05;101103.56;;;19.28;75.88
48606;BME280;8482;54.396;18.590;2023-07-13T06:08:32;101103.38;;;19.38;74.72
48606;BME280;8482;54.396;18.590;2023-07-13T06:11:19;101104.88;;;19.41;74.78
48606;BME280;8482;54.396;18.590;2023-07-13T06:13:46;101097.16;;;19.46;74.55
48606;BME280;8482;54.396;18.590;2023-07-13T06:16:13;101102.88;;;19.51;73.24
48606;BME280;8482;54.396;18.590;2023-07-13T06:18:40;101104.03;;;19.57;73.47
48606;BME280;8482;54.396;18.590;2023-07-13T06:21:13;101109.56;;;19.64;72.92
48606;BME280;8482;54.396;18.590;2023-07-13T06:23:40;101113.09;;;19.64;73.00
48606;BME280;8482;54.396;18.590;2023-07-13T06:26:07;101111.88;;;19.67;73.01
48606;BME280;8482;54.396;18.590;2023-07-13T06:28:35;101108.72;;;19.71;72.41
48606;BME280;8482;54.396;18.590;2023-07-13T06:31:01;101115.41;;;19.75;72.07
48606;BME280;8482;54.396;18.590;2023-07-13T06:33:27;101110.50;;;19.79;72.28
48606;BME280;8482;54.396;18.590;2023-07-13T06:35:54;101111.84;;;19.83;72.20
48606;BME280;8482;54.396;18.590;2023-07-13T06:38:20;101116.59;;;19.89;71.46
48606;BME280;8482;54.396;18.590;2023-07-13T06:40:46;101124.28;;;19.93;70.83
48606;BME280;8482;54.396;18.590;2023-07-13T06:43:12;101124.63;;;19.98;69.97
48606;BME280;8482;54.396;18.590;2023-07-13T06:45:45;101125.28;;;20.00;69.19
48606;BME280;8482;54.396;18.590;2023-07-13T06:48:14;101117.50;;;20.05;68.49
48606;BME280;8482;54.396;18.590;2023-07-13T06:50:41;101126.78;;;20.02;68.32
48606;BME280;8482;54.396;18.590;2023-07-13T06:53:07;101110.28;;;20.05;66.88
48606;BME280;8482;54.396;18.590;2023-07-13T06:55:32;101110.75;;;20.09;66.97
48606;BME280;8482;54.396;18.590;2023-07-13T06:57:58;101117.63;;;20.12;67.36
48606;BME280;8482;54.396;18.590;2023-07-13T07:00:24;101123.53;;;20.15;66.63
48606;BME280;8482;54.396;18.590;2023-07-13T07:02:50;101121.50;;;20.17;66.53
48606;BME280;8482;54.396;18.590;2023-07-13T07:05:16;101128.22;;;20.21;66.87
48606;BME280;8482;54.396;18.590;2023-07-13T07:07:42;101132.72;;;20.29;66.21
48606;BME280;8482;54.396;18.590;2023-07-13T07:10:08;101132.19;;;20.34;65.78
48606;BME280;8482;54.396;18.590;2023-07-13T07:12:34;101134.34;;;20.39;64.70
48606;BME280;8482;54.396;18.590;2023-07-13T07:15:00;101132.97;;;20.43;64.90
48606;BME280;8482;54.396;18.590;2023-07-13T07:17:26;101129.28;;;20.44;65.34
48606;BME280;8482;54.396;18.590;2023-07-13T07:19:52;101130.59;;;20.48;65.52
48606;BME280;8482;54.396;18.590;2023-07-13T07:22:21;101124.50;;;20.54;65.59
48606;BME280;8482;54.396;18.590;2023-07-13T07:24:47;101140.78;;;20.61;65.43
48606;BME280;8482;54.396;18.590;2023-07-13T07:27:13;101140.91;;;20.67;64.62
48606;BME280;8482;54.396;18.590;2023-07-13T07:29:39;101135.66;;;20.74;64.33
48606;BME280;8482;54.396;18.590;2023-07-13T07:32:05;101136.34;;;20.76;63.22
48606;BME280;8482;54.396;18.590;2023-07-13T07:34:31;101139.69;;;20.78;62.62
48606;BME280;8482;54.396;18.590;2023-07-13T07:37:00;101128.72;;;20.80;62.18
48606;BME280;8482;54.396;18.590;2023-07-13T07:39:27;101125.88;;;20.81;62.53
48606;BME280;8482;54.396;18.590;2023-07-13T07:41:53;101126.53;;;20.84;62.72
48606;BME280;8482;54.396;18.590;2023-07-13T07:44:19;101131.53;;;20.87;63.03
48606;BME280;8482;54.396;18.590;2023-07-13T07:46:45;101124.13;;;20.89;62.47
48606;BME280;8482;54.396;18.590;2023-07-13T07:49:12;101131.66;;;20.93;62.36
48606;BME280;8482;54.396;18.590;2023-07-13T07:51:37;101131.09;;;20.98;61.98
48606;BME280;8482;54.396;18.590;2023-07-13T07:54:04;101140.06;;;20.98;60.90
48606;BME280;8482;54.396;18.590;2023-07-13T07:56:31;101145.91;;;21.02;60.71
48606;BME280;8482;54.396;18.590;2023-07-13T07:58:57;101139.88;;;21.00;60.44
48606;BME280;8482;54.396;18.590;2023-07-13T08:01:23;101141.53;;;21.01;60.46
48606;BME280;8482;54.396;18.590;2023-07-13T08:03:49;101154.31;;;21.07;60.50
48606;BME280;8482;54.396;18.590;2023-07-13T08:06:15;101148.19;;;21.13;59.80
48606;BME280;8482;54.396;18.590;2023-07-13T08:08:41;101151.84;;;21.21;58.61
48606;BME280;8482;54.396;18.590;2023-07-13T08:11:08;101150.44;;;21.25;58.44
48606;BME280;8482;54.396;18.590;2023-07-13T08:13:35;101142.47;;;21.32;57.80
48606;BME280;8482;54.396;18.590;2023-07-13T08:16:03;101155.44;;;21.36;57.83
48606;BME280;8482;54.396;18.590;2023-07-13T08:18:29;101146.28;;;21.37;57.36
48606;BME280;8482;54.396;18.590;2023-07-13T08:20:55;101157.06;;;21.37;57.66
48606;BME280;8482;54.396;18.590;2023-07-13T08:23:25;101156.72;;;21.40;57.97
48606;BME280;8482;54.396;18.590;2023-07-13T08:25:55;101153.66;;;21.43;58.21
48606;BME280;8482;54.396;18.590;2023-07-13T08:28:22;101153.09;;;21.48;57.65
48606;BME280;8482;54.396;18.590;2023-07-13T08:30:48;101151.88;;;21.51;57.67
48606;BME280;8482;54.396;18.590;2023-07-13T08:33:19;101154.06;;;21.55;57.58
48606;BME280;8482;54.396;18.590;2023-07-13T08:35:49;101151.81;;;21.59;57.33
48606;BME280;8482;54.396;18.590;2023-07-13T08:38:17;101157.16;;;21.67;57.00
48606;BME280;8482;54.396;18.590;2023-07-13T08:40:43;101161.84;;;21.73;56.47
48606;BME280;8482;54.396;18.590;2023-07-13T08:43:17;101155.66;;;21.80;55.95
48606;BME280;8482;54.396;18.590;2023-07-13T08:45:53;101159.03;;;21.82;56.17
48606;BME280;8482;54.396;18.590;2023-07-13T08:48:30;101161.00;;;21.88;56.28
48606;BME280;8482;54.396;18.590;2023-07-13T08:51:02;101162.13;;;21.94;55.20
48606;BME280;8482;54.396;18.590;2023-07-13T08:53:37;101167.50;;;21.94;54.92
48606;BME280;8482;54.396;18.590;2023-07-13T08:56:11;101169.19;;;21.95;54.53
48606;BME280;8482;54.396;18.590;2023-07-13T08:58:40;101162.56;;;21.97;54.13
48606;BME280;8482;54.396;18.590;2023-07-13T09:04:49;101147.59;;;21.95;54.38
48606;BME280;8482;54.396;18.590;2023-07-13T09:13:16;101148.22;;;22.12;52.67
48606;BME280;8482;54.396;18.590;2023-07-13T09:15:47;101147.19;;;22.13;52.95
48606;BME280;8482;54.396;18.590;2023-07-13T09:21:03;101135.44;;;22.20;52.06
48606;BME280;8482;54.396;18.590;2023-07-13T09:23:31;101136.72;;;22.25;52.05
48606;BME280;8482;54.396;18.590;2023-07-13T09:26:19;101133.28;;;22.31;52.20
48606;BME280;8482;54.396;18.590;2023-07-13T09:28:51;101138.75;;;22.38;52.19
48606;BME280;8482;54.396;18.590;2023-07-13T09:31:28;101130.97;;;22.43;52.18
48606;BME280;8482;54.396;18.590;2023-07-13T09:33:56;101130.56;;;22.46;52.82
48606;BME280;8482;54.396;18.590;2023-07-13T09:36:33;101126.97;;;22.60;53.85
48606;BME280;8482;54.396;18.590;2023-07-13T09:46:58;101125.69;;;22.78;51.04
48606;BME280;8482;54.396;18.590;2023-07-13T09:49:33;101140.50;;;22.82;51.04
48606;BME280;8482;54.396;18.590;2023-07-13T09:52:15;101128.63;;;22.83;50.83
48606;BME280;8482;54.396;18.590;2023-07-13T09:54:46;101131.22;;;22.91;49.84
48606;BME280;8482;54.396;18.590;2023-07-13T09:57:22;101130.25;;;22.99;51.08
48606;BME280;8482;54.396;18.590;2023-07-13T09:59:51;101126.16;;;23.10;51.24
48606;BME280;8482;54.396;18.590;2023-07-13T10:02:33;101128.56;;;23.20;50.41
48606;BME280;8482;54.396;18.590;2023-07-13T10:05:05;101138.44;;;23.27;50.25
48606;BME280;8482;54.396;18.590;2023-07-13T10:07:32;101131.59;;;23.32;49.79
48606;BME280;8482;54.396;18.590;2023-07-13T10:10:03;101139.34;;;23.35;49.66
48606;BME280;8482;54.396;18.590;2023-07-13T10:12:35;101152.72;;;23.43;49.47
48606;BME280;8482;54.396;18.590;2023-07-13T10:15:02;101163.78;;;23.48;49.48
48606;BME280;8482;54.396;18.590;2023-07-13T10:17:32;101162.72;;;23.49;51.15
48606;BME280;8482;54.396;18.590;2023-07-13T10:20:04;101157.53;;;23.48;52.92
48606;BME280;8482;54.396;18.590;2023-07-13T10:23:04;101171.44;;;23.45;54.59
48606;BME280;8482;54.396;18.590;2023-07-13T10:25:38;101181.56;;;23.36;55.19
48606;BME280;8482;54.396;18.590;2023-07-13T10:28:33;101202.72;;;23.25;55.61
48606;BME280;8482;54.396;18.590;2023-07-13T10:31:02;101204.69;;;23.17;55.84
48606;BME280;8482;54.396;18.590;2023-07-13T10:33:30;101209.22;;;23.09;55.93
48606;BME280;8482;54.396;18.590;2023-07-13T10:38:46;101205.66;;;22.87;56.95
48606;BME280;8482;54.396;18.590;2023-07-13T10:41:21;101201.59;;;22.76;58.53
48606;BME280;8482;54.396;18.590;2023-07-13T10:43:55;101206.31;;;22.68;60.22
48606;BME280;8482;54.396;18.590;2023-07-13T10:46:25;101206.16;;;22.54;59.12
48606;BME280;8482;54.396;18.590;2023-07-13T10:49:02;101194.66;;;22.37;58.03
48606;BME280;8482;54.396;18.590;2023-07-13T10:51:31;101193.22;;;22.19;59.18
48606;BME280;8482;54.396;18.590;2023-07-13T10:54:31;101201.13;;;22.06;60.65
48606;BME280;8482;54.396;18.590;2023-07-13T10:59:38;101206.34;;;21.93;62.18
48606;BME280;8482;54.396;18.590;2023-07-13T11:02:15;101201.31;;;21.89;61.34
48606;BME280;8482;54.396;18.590;2023-07-13T11:04:48;101207.63;;;21.82;59.37
48606;BME280;8482;54.396;18.590;2023-07-13T11:07:30;101203.44;;;21.79;61.75
48606;BME280;8482;54.396;18.590;2023-07-13T11:10:03;101214.16;;;21.87;64.31
48606;BME280;8482;54.396;18.590;2023-07-13T11:15:14;101203.84;;;22.06;66.95
48606;BME280;8482;54.396;18.590;2023-07-13T11:17:51;101207.09;;;22.16;66.72
48606;BME280;8482;54.396;18.590;2023-07-13T11:20:35;101195.06;;;22.19;65.90
48606;BME280;8482;54.396;18.590;2023-07-13T11:25:42;101206.44;;;22.29;66.99
48606;BME280;8482;54.396;18.590;2023-07-13T11:36:21;101219.75;;;22.31;65.78
48606;BME280;8482;54.396;18.590;2023-07-13T11:39:18;101212.88;;;22.28;65.58
48606;BME280;8482;54.396;18.590;2023-07-13T11:41:52;101212.47;;;22.31;65.45
48606;BME280;8482;54.396;18.590;2023-07-13T11:44:23;101210.72;;;22.39;65.28
48606;BME280;8482;54.396;18.590;2023-07-13T11:46:59;101205.88;;;22.49;65.42
48606;BME280;8482;54.396;18.590;2023-07-13T11:49:29;101207.25;;;22.60;64.48
48606;BME280;8482;54.396;18.590;2023-07-13T11:51:57;101221.69;;;22.67;63.93
48606;BME280;8482;54.396;18.590;2023-07-13T11:54:33;101205.91;;;22.71;63.51
48606;BME280;8482;54.396;18.590;2023-07-13T11:59:43;101223.47;;;22.60;62.39
48606;BME280;8482;54.396;18.590;2023-07-13T12:02:21;101216.09;;;22.54;62.48
48606;BME280;8482;54.396;18.590;2023-07-13T12:04:51;101224.41;;;22.52;62.48
48606;BME280;8482;54.396;18.590;2023-07-13T12:07:19;101226.91;;;22.54;62.76
48606;BME280;8482;54.396;18.590;2023-07-13T12:09:45;101225.69;;;22.56;63.18
48606;BME280;8482;54.396;18.590;2023-07-13T12:12:19;101232.69;;;22.65;63.06
48606;BME280;8482;54.396;18.590;2023-07-13T12:14:45;101235.47;;;22.72;62.82
48606;BME280;8482;54.396;18.590;2023-07-13T12:17:23;101230.13;;;22.79;62.67
48606;BME280;8482;54.396;18.590;2023-07-13T12:19:51;101232.47;;;22.82;62.21
48606;BME280;8482;54.396;18.590;2023-07-13T12:22:19;101230.66;;;22.89;61.83
48606;BME280;8482;54.396;18.590;2023-07-13T12:24:47;101236.97;;;22.96;61.42
48606;BME280;8482;54.396;18.590;2023-07-13T12:27:26;101236.28;;;23.09;61.85
48606;BME280;8482;54.396;18.590;2023-07-13T12:30:01;101232.06;;;23.22;61.04
48606;BME280;8482;54.396;18.590;2023-07-13T12:32:28;101231.91;;;23.30;60.04
48606;BME280;8482;54.396;18.590;2023-07-13T12:35:17;101232.56;;;23.32;59.04
48606;BME280;8482;54.396;18.590;2023-07-13T12:37:46;101236.88;;;23.26;58.67
48606;BME280;8482;54.396;18.590;2023-07-13T12:40:20;101237.59;;;23.14;58.39
48606;BME280;8482;54.396;18.590;2023-07-13T12:42:51;101243.09;;;23.05;58.27
48606;BME280;8482;54.396;18.590;2023-07-13T12:45:27;101234.91;;;22.99;57.82
48606;BME280;8482;54.396;18.590;2023-07-13T12:48:14;101237.09;;;22.88;57.51
48606;BME280;8482;54.396;18.590;2023-07-13T12:50:46;101237.88;;;22.82;58.15
48606;BME280;8482;54.396;18.590;2023-07-13T12:53:21;101234.53;;;22.80;58.47
48606;BME280;8482;54.396;18.590;2023-07-13T12:55:52;101228.09;;;22.81;58.97
48606;BME280;8482;54.396;18.590;2023-07-13T12:58:36;101227.59;;;22.92;58.42
48606;BME280;8482;54.396;18.590;2023-07-13T13:01:04;101232.03;;;23.00;57.97
48606;BME280;8482;54.396;18.590;2023-07-13T13:03:45;101227.50;;;23.07;57.48
48606;BME280;8482;54.396;18.590;2023-07-13T13:06:28;101227.19;;;23.17;56.66
48606;BME280;8482;54.396;18.590;2023-07-13T13:08:57;101221.69;;;23.25;56.10
48606;BME280;8482;54.396;18.590;2023-07-13T13:11:26;101217.81;;;23.35;55.72
48606;BME280;8482;54.396;18.590;2023-07-13T13:13:53;101217.47;;;23.45;54.42
48606;BME280;8482;54.396;18.590;2023-07-13T13:16:22;101205.03;;;23.50;54.17
48606;BME280;8482;54.396;18.590;2023-07-13T13:18:53;101200.50;;;23.57;54.09
48606;BME280;8482;54.396;18.590;2023-07-13T13:21:20;101198.66;;;23.65;53.98
48606;BME280;8482;54.396;18.590;2023-07-13T13:23:47;101189.78;;;23.71;53.80
48606;BME280;8482;54.396;18.590;2023-07-13T13:26:16;101193.34;;;23.78;53.38
48606;BME280;8482;54.396;18.590;2023-07-13T13:28:43;101195.91;;;23.86;52.38
48606;BME280;8482;54.396;18.590;2023-07-13T13:31:11;101198.84;;;23.92;52.18
48606;BME280;8482;54.396;18.590;2023-07-13T13:33:44;101196.56;;;23.95;52.23
48606;BME280;8482;54.396;18.590;2023-07-13T13:36:19;101212.06;;;24.01;52.17
48606;BME280;8482;54.396;18.590;2023-07-13T13:38:47;101222.94;;;24.08;51.44
48606;BME280;8482;54.396;18.590;2023-07-13T13:41:14;101214.22;;;24.13;51.80